sensor_id;sensor_type;location;lat;lon;timestamp;P1;durP1;ratioP1;P2;durP2;ratioP2
20545;SDS011;10431;50.228;9.112;2023-06-10T00:00:43;7.60;;;6.90;;
20545;SDS011;10431;50.228;9.112;2023-06-10T00:03:10;7.72;;;7.03;;
20545;SDS011;10431;50.228;9.112;2023-06-10T00:05:36;9.93;;;6.60;;
20545;SDS011;10431;50.228;9.112;2023-06-10T00:08:04;7.85;;;7.05;;
20545;SDS011;10431;50.228;9.112;2023-06-10T00:10:33;7.68;;;6.80;;
20545;SDS011;10431;50.228;9.112;2023-06-10T00:13:01;7.78;;;6.97;;
20545;SDS011;10431;50.228;9.112;2023-06-10T00:15:29;6.93;;;6.32;;
20545;SDS011;10431;50.228;9.112;2023-06-10T00:17:56;6.80;;;6.20;;
20545;SDS011;10431;50.228;9.112;2023-06-10T00:20:22;8.23;;;6.45;;
20545;SDS011;10431;50.228;9.112;2023-06-10T00:22:51;7.80;;;7.03;;
20545;SDS011;10431;50.228;9.112;2023-06-10T00:25:18;7.30;;;6.60;;
20545;SDS011;10431;50.228;9.112;2023-06-10T00:27:44;7.30;;;6.60;;
20545;SDS011;10431;50.228;9.112;2023-06-10T00:30:11;7.32;;;6.63;;
20545;SDS011;10431;50.228;9.112;2023-06-10T00:32:37;7.18;;;6.47;;
20545;SDS011;10431;50.228;9.112;2023-06-10T00:35:03;7.13;;;6.43;;
20545;SDS011;10431;50.228;9.112;2023-06-10T00:37:31;7.20;;;6.50;;
20545;SDS011;10431;50.228;9.112;2023-06-10T00:40:00;7.18;;;6.43;;
20545;SDS011;10431;50.228;9.112;2023-06-10T00:42:28;7.35;;;6.65;;
20545;SDS011;10431;50.228;9.112;2023-06-10T00:44:54;7.72;;;7.03;;
20545;SDS011;10431;50.228;9.112;2023-06-10T00:47:20;7.28;;;6.57;;
20545;SDS011;10431;50.228;9.112;2023-06-10T00:49:47;7.40;;;6.63;;
20545;SDS011;10431;50.228;9.112;2023-06-10T00:52:15;6.82;;;6.13;;
20545;SDS011;10431;50.228;9.112;2023-06-10T00:54:44;6.90;;;6.25;;
20545;SDS011;10431;50.228;9.112;2023-06-10T00:57:10;6.90;;;6.20;;
20545;SDS011;10431;50.228;9.112;2023-06-10T00:59:39;7.10;;;6.35;;
20545;SDS011;10431;50.228;9.112;2023-06-10T01:02:06;7.30;;;6.60;;
20545;SDS011;10431;50.228;9.112;2023-06-10T01:04:33;6.65;;;6.05;;
20545;SDS011;10431;50.228;9.112;2023-06-10T01:15:30;6.78;;;6.10;;
20545;SDS011;10431;50.228;9.112;2023-06-10T01:17:58;7.07;;;6.38;;
20545;SDS011;10431;50.228;9.112;2023-06-10T01:20:32;7.65;;;6.70;;
20545;SDS011;10431;50.228;9.112;2023-06-10T01:22:59;6.75;;;6.07;;
20545;SDS011;10431;50.228;9.112;2023-06-10T01:25:26;6.90;;;6.28;;
20545;SDS011;10431;50.228;9.112;2023-06-10T01:27:54;6.53;;;5.93;;
20545;SDS011;10431;50.228;9.112;2023-06-10T01:31:25;7.60;;;6.70;;
20545;SDS011;10431;50.228;9.112;2023-06-10T01:33:35;7.22;;;6.53;;
20545;SDS011;10431;50.228;9.112;2023-06-10T01:36:08;7.10;;;6.40;;
20545;SDS011;10431;50.228;9.112;2023-06-10T01:38:44;6.95;;;6.25;;
20545;SDS011;10431;50.228;9.112;2023-06-10T01:41:14;6.43;;;5.82;;
20545;SDS011;10431;50.228;9.112;2023-06-10T01:43:44;6.28;;;5.68;;
20545;SDS011;10431;50.228;9.112;2023-06-10T01:46:13;7.28;;;6.57;;
20545;SDS011;10431;50.228;9.112;2023-06-10T01:48:40;6.60;;;5.90;;
20545;SDS011;10431;50.228;9.112;2023-06-10T01:51:08;6.57;;;5.97;;
20545;SDS011;10431;50.228;9.112;2023-06-10T01:53:35;6.20;;;5.60;;
20545;SDS011;10431;50.228;9.112;2023-06-10T01:56:02;6.53;;;5.93;;
20545;SDS011;10431;50.228;9.112;2023-06-10T01:58:28;6.35;;;5.75;;
20545;SDS011;10431;50.228;9.112;2023-06-10T02:00:55;6.32;;;5.72;;
20545;SDS011;10431;50.228;9.112;2023-06-10T02:03:21;7.13;;;6.43;;
20545;SDS011;10431;50.228;9.112;2023-06-10T02:05:47;6.25;;;5.65;;
20545;SDS011;10431;50.228;9.112;2023-06-10T02:08:15;6.47;;;5.85;;
20545;SDS011;10431;50.228;9.112;2023-06-10T02:10:41;6.97;;;6.07;;
20545;SDS011;10431;50.228;9.112;2023-06-10T02:13:07;6.18;;;5.65;;
20545;SDS011;10431;50.228;9.112;2023-06-10T02:15:34;6.13;;;5.63;;
20545;SDS011;10431;50.228;9.112;2023-06-10T02:18:00;6.35;;;5.72;;
20545;SDS011;10431;50.228;9.112;2023-06-10T02:20:26;6.25;;;5.65;;
20545;SDS011;10431;50.228;9.112;2023-06-10T02:22:52;6.50;;;5.90;;
20545;SDS011;10431;50.228;9.112;2023-06-10T02:25:19;6.85;;;6.20;;
20545;SDS011;10431;50.228;9.112;2023-06-10T02:27:45;6.70;;;6.10;;
20545;SDS011;10431;50.228;9.112;2023-06-10T02:30:11;6.60;;;6.00;;
20545;SDS011;10431;50.228;9.112;2023-06-10T02:32:39;6.40;;;5.80;;
20545;SDS011;10431;50.228;9.112;2023-06-10T02:35:05;6.28;;;5.78;;
20545;SDS011;10431;50.228;9.112;2023-06-10T02:37:32;6.70;;;6.03;;
20545;SDS011;10431;50.228;9.112;2023-06-10T02:39:59;6.28;;;5.68;;
20545;SDS011;10431;50.228;9.112;2023-06-10T02:42:26;5.80;;;5.30;;
20545;SDS011;10431;50.228;9.112;2023-06-10T02:44:53;6.32;;;5.72;;
20545;SDS011;10431;50.228;9.112;2023-06-10T02:47:29;6.47;;;5.88;;
20545;SDS011;10431;50.228;9.112;2023-06-10T02:49:56;8.07;;;6.05;;
20545;SDS011;10431;50.228;9.112;2023-06-10T02:52:22;6.55;;;5.95;;
20545;SDS011;10431;50.228;9.112;2023-06-10T02:54:50;6.50;;;5.90;;
20545;SDS011;10431;50.228;9.112;2023-06-10T02:57:16;8.70;;;6.05;;
20545;SDS011;10431;50.228;9.112;2023-06-10T02:59:42;10.32;;;7.60;;
20545;SDS011;10431;50.228;9.112;2023-06-10T03:02:09;12.32;;;7.45;;
20545;SDS011;10431;50.228;9.112;2023-06-10T03:04:42;12.93;;;7.53;;
20545;SDS011;10431;50.228;9.112;2023-06-10T03:07:13;9.23;;;7.97;;
20545;SDS011;10431;50.228;9.112;2023-06-10T03:09:39;11.93;;;7.70;;
20545;SDS011;10431;50.228;9.112;2023-06-10T03:12:09;10.68;;;7.80;;
20545;SDS011;10431;50.228;9.112;2023-06-10T03:14:40;10.20;;;7.70;;
20545;SDS011;10431;50.228;9.112;2023-06-10T03:17:07;13.45;;;7.78;;
20545;SDS011;10431;50.228;9.112;2023-06-10T03:19:39;13.55;;;8.18;;
20545;SDS011;10431;50.228;9.112;2023-06-10T03:22:09;11.77;;;8.02;;
20545;SDS011;10431;50.228;9.112;2023-06-10T03:24:45;10.82;;;8.25;;
20545;SDS011;10431;50.228;9.112;2023-06-10T03:27:12;9.52;;;8.05;;
20545;SDS011;10431;50.228;9.112;2023-06-10T03:29:43;12.68;;;8.10;;
20545;SDS011;10431;50.228;9.112;2023-06-10T03:32:09;10.57;;;7.70;;
20545;SDS011;10431;50.228;9.112;2023-06-10T03:34:38;9.43;;;8.15;;
20545;SDS011;10431;50.228;9.112;2023-06-10T03:37:04;13.85;;;8.30;;
20545;SDS011;10431;50.228;9.112;2023-06-10T03:39:32;10.60;;;8.18;;
20545;SDS011;10431;50.228;9.112;2023-06-10T03:41:59;9.63;;;8.00;;
20545;SDS011;10431;50.228;9.112;2023-06-10T03:44:27;9.27;;;8.32;;
20545;SDS011;10431;50.228;9.112;2023-06-10T03:46:56;11.40;;;8.38;;
20545;SDS011;10431;50.228;9.112;2023-06-10T03:49:24;12.23;;;8.40;;
20545;SDS011;10431;50.228;9.112;2023-06-10T03:51:55;12.70;;;8.00;;
20545;SDS011;10431;50.228;9.112;2023-06-10T03:54:22;8.82;;;7.93;;
20545;SDS011;10431;50.228;9.112;2023-06-10T03:56:48;12.32;;;8.60;;
20545;SDS011;10431;50.228;9.112;2023-06-10T03:59:15;12.82;;;8.40;;
20545;SDS011;10431;50.228;9.112;2023-06-10T04:01:41;10.07;;;8.65;;
20545;SDS011;10431;50.228;9.112;2023-06-10T04:04:09;10.98;;;7.90;;
20545;SDS011;10431;50.228;9.112;2023-06-10T04:06:36;9.73;;;7.75;;
20545;SDS011;10431;50.228;9.112;2023-06-10T04:09:02;12.57;;;8.23;;
20545;SDS011;10431;50.228;9.112;2023-06-10T04:11:29;12.75;;;7.93;;
20545;SDS011;10431;50.228;9.112;2023-06-10T04:13:57;10.98;;;7.80;;
20545;SDS011;10431;50.228;9.112;2023-06-10T04:16:24;9.95;;;7.93;;
20545;SDS011;10431;50.228;9.112;2023-06-10T04:18:50;11.80;;;7.78;;
20545;SDS011;10431;50.228;9.112;2023-06-10T04:21:17;9.95;;;7.43;;
20545;SDS011;10431;50.228;9.112;2023-06-10T04:23:43;11.23;;;8.23;;
20545;SDS011;10431;50.228;9.112;2023-06-10T04:26:10;15.98;;;8.50;;
20545;SDS011;10431;50.228;9.112;2023-06-10T04:28:38;10.55;;;8.25;;
20545;SDS011;10431;50.228;9.112;2023-06-10T04:31:04;10.60;;;8.05;;
20545;SDS011;10431;50.228;9.112;2023-06-10T04:33:31;8.65;;;7.85;;
20545;SDS011;10431;50.228;9.112;2023-06-10T04:36:00;11.57;;;7.93;;
20545;SDS011;10431;50.228;9.112;2023-06-10T04:38:29;13.18;;;9.52;;
20545;SDS011;10431;50.228;9.112;2023-06-10T04:40:57;11.55;;;8.52;;
20545;SDS011;10431;50.228;9.112;2023-06-10T04:43:25;11.13;;;8.80;;
20545;SDS011;10431;50.228;9.112;2023-06-10T04:45:51;13.57;;;9.13;;
20545;SDS011;10431;50.228;9.112;2023-06-10T04:48:17;14.55;;;9.90;;
20545;SDS011;10431;50.228;9.112;2023-06-10T04:50:44;26.30;;;10.20;;
20545;SDS011;10431;50.228;9.112;2023-06-10T04:53:10;15.13;;;10.02;;
20545;SDS011;10431;50.228;9.112;2023-06-10T04:55:39;13.10;;;11.30;;
20545;SDS011;10431;50.228;9.112;2023-06-10T04:58:05;12.45;;;10.48;;
20545;SDS011;10431;50.228;9.112;2023-06-10T05:00:34;11.50;;;9.95;;
20545;SDS011;10431;50.228;9.112;2023-06-10T05:03:01;13.63;;;9.70;;
20545;SDS011;10431;50.228;9.112;2023-06-10T05:05:27;13.50;;;10.35;;
20545;SDS011;10431;50.228;9.112;2023-06-10T05:07:53;13.10;;;10.18;;
20545;SDS011;10431;50.228;9.112;2023-06-10T05:10:19;11.93;;;10.45;;
20545;SDS011;10431;50.228;9.112;2023-06-10T05:12:46;10.93;;;9.77;;
20545;SDS011;10431;50.228;9.112;2023-06-10T05:15:12;14.15;;;10.77;;
20545;SDS011;10431;50.228;9.112;2023-06-10T05:17:38;11.65;;;9.98;;
20545;SDS011;10431;50.228;9.112;2023-06-10T05:20:05;11.77;;;9.48;;
20545;SDS011;10431;50.228;9.112;2023-06-10T05:22:32;11.48;;;9.77;;
20545;SDS011;10431;50.228;9.112;2023-06-10T05:24:58;15.82;;;9.95;;
20545;SDS011;10431;50.228;9.112;2023-06-10T05:27:24;12.32;;;10.20;;
20545;SDS011;10431;50.228;9.112;2023-06-10T05:29:51;14.48;;;10.77;;
20545;SDS011;10431;50.228;9.112;2023-06-10T05:32:17;15.18;;;10.30;;
20545;SDS011;10431;50.228;9.112;2023-06-10T05:34:43;11.43;;;9.77;;
20545;SDS011;10431;50.228;9.112;2023-06-10T05:37:10;11.38;;;10.05;;
20545;SDS011;10431;50.228;9.112;2023-06-10T05:39:36;14.00;;;10.32;;
20545;SDS011;10431;50.228;9.112;2023-06-10T05:42:04;13.00;;;9.40;;
20545;SDS011;10431;50.228;9.112;2023-06-10T05:44:32;14.40;;;9.65;;
20545;SDS011;10431;50.228;9.112;2023-06-10T05:46:58;11.65;;;9.88;;
20545;SDS011;10431;50.228;9.112;2023-06-10T05:49:25;15.25;;;9.45;;
20545;SDS011;10431;50.228;9.112;2023-06-10T05:51:51;15.98;;;10.27;;
20545;SDS011;10431;50.228;9.112;2023-06-10T05:54:18;13.77;;;9.35;;
20545;SDS011;10431;50.228;9.112;2023-06-10T05:56:44;12.20;;;9.40;;
20545;SDS011;10431;50.228;9.112;2023-06-10T05:59:11;13.35;;;9.77;;
20545;SDS011;10431;50.228;9.112;2023-06-10T06:01:37;14.85;;;9.35;;
20545;SDS011;10431;50.228;9.112;2023-06-10T06:04:03;12.10;;;9.25;;
20545;SDS011;10431;50.228;9.112;2023-06-10T06:06:29;12.43;;;9.52;;
20545;SDS011;10431;50.228;9.112;2023-06-10T06:08:56;10.60;;;9.45;;
20545;SDS011;10431;50.228;9.112;2023-06-10T06:11:22;14.55;;;9.18;;
20545;SDS011;10431;50.228;9.112;2023-06-10T06:13:48;13.20;;;8.57;;
20545;SDS011;10431;50.228;9.112;2023-06-10T06:16:14;12.38;;;9.40;;
20545;SDS011;10431;50.228;9.112;2023-06-10T06:18:41;18.92;;;9.80;;
20545;SDS011;10431;50.228;9.112;2023-06-10T06:21:07;13.00;;;9.63;;
20545;SDS011;10431;50.228;9.112;2023-06-10T06:23:33;13.48;;;8.95;;
20545;SDS011;10431;50.228;9.112;2023-06-10T06:25:59;12.32;;;9.48;;
20545;SDS011;10431;50.228;9.112;2023-06-10T06:28:25;13.70;;;9.30;;
20545;SDS011;10431;50.228;9.112;2023-06-10T06:30:55;12.18;;;8.95;;
20545;SDS011;10431;50.228;9.112;2023-06-10T06:33:21;22.02;;;9.82;;
20545;SDS011;10431;50.228;9.112;2023-06-10T06:35:48;14.43;;;8.90;;
20545;SDS011;10431;50.228;9.112;2023-06-10T06:38:14;14.48;;;9.20;;
20545;SDS011;10431;50.228;9.112;2023-06-10T06:40:41;16.08;;;8.90;;
20545;SDS011;10431;50.228;9.112;2023-06-10T06:43:07;21.98;;;10.43;;
20545;SDS011;10431;50.228;9.112;2023-06-10T06:45:52;18.00;;;9.10;;
20545;SDS011;10431;50.228;9.112;2023-06-10T06:48:18;13.10;;;9.18;;
20545;SDS011;10431;50.228;9.112;2023-06-10T06:50:44;15.25;;;9.40;;
20545;SDS011;10431;50.228;9.112;2023-06-10T06:53:10;13.10;;;8.93;;
20545;SDS011;10431;50.228;9.112;2023-06-10T06:55:37;16.48;;;9.88;;
20545;SDS011;10431;50.228;9.112;2023-06-10T06:58:03;18.55;;;9.77;;
20545;SDS011;10431;50.228;9.112;2023-06-10T07:00:30;12.65;;;9.00;;
20545;SDS011;10431;50.228;9.112;2023-06-10T07:02:56;11.70;;;8.77;;
20545;SDS011;10431;50.228;9.112;2023-06-10T07:05:23;15.15;;;8.95;;
20545;SDS011;10431;50.228;9.112;2023-06-10T07:07:53;13.75;;;8.95;;
20545;SDS011;10431;50.228;9.112;2023-06-10T07:10:23;15.32;;;8.75;;
20545;SDS011;10431;50.228;9.112;2023-06-10T07:12:51;14.43;;;8.32;;
20545;SDS011;10431;50.228;9.112;2023-06-10T07:15:18;10.30;;;8.55;;
20545;SDS011;10431;50.228;9.112;2023-06-10T07:17:44;12.90;;;8.52;;
20545;SDS011;10431;50.228;9.112;2023-06-10T07:20:10;12.95;;;8.60;;
20545;SDS011;10431;50.228;9.112;2023-06-10T07:22:37;10.73;;;8.90;;
20545;SDS011;10431;50.228;9.112;2023-06-10T07:25:06;10.95;;;8.40;;
20545;SDS011;10431;50.228;9.112;2023-06-10T07:27:33;11.63;;;8.20;;
20545;SDS011;10431;50.228;9.112;2023-06-10T07:29:59;11.55;;;8.93;;
20545;SDS011;10431;50.228;9.112;2023-06-10T07:32:26;15.60;;;8.82;;
20545;SDS011;10431;50.228;9.112;2023-06-10T07:34:52;12.85;;;8.52;;
20545;SDS011;10431;50.228;9.112;2023-06-10T07:37:19;13.27;;;9.18;;
20545;SDS011;10431;50.228;9.112;2023-06-10T07:39:45;13.77;;;8.27;;
20545;SDS011;10431;50.228;9.112;2023-06-10T07:42:11;18.50;;;9.30;;
20545;SDS011;10431;50.228;9.112;2023-06-10T07:44:37;15.63;;;8.80;;
20545;SDS011;10431;50.228;9.112;2023-06-10T07:47:04;14.60;;;8.68;;
20545;SDS011;10431;50.228;9.112;2023-06-10T07:49:30;15.43;;;8.70;;
20545;SDS011;10431;50.228;9.112;2023-06-10T07:51:56;18.10;;;8.85;;
20545;SDS011;10431;50.228;9.112;2023-06-10T07:54:23;11.23;;;8.65;;
20545;SDS011;10431;50.228;9.112;2023-06-10T07:56:49;15.65;;;8.88;;
20545;SDS011;10431;50.228;9.112;2023-06-10T07:59:17;15.65;;;8.70;;
20545;SDS011;10431;50.228;9.112;2023-06-10T08:01:43;12.75;;;8.10;;
20545;SDS011;10431;50.228;9.112;2023-06-10T08:04:10;12.80;;;7.90;;
20545;SDS011;10431;50.228;9.112;2023-06-10T08:06:36;10.15;;;8.00;;
20545;SDS011;10431;50.228;9.112;2023-06-10T08:09:03;10.15;;;8.90;;
20545;SDS011;10431;50.228;9.112;2023-06-10T08:11:29;12.45;;;7.80;;
20545;SDS011;10431;50.228;9.112;2023-06-10T08:13:55;12.45;;;8.52;;
20545;SDS011;10431;50.228;9.112;2023-06-10T08:16:21;12.55;;;8.45;;
20545;SDS011;10431;50.228;9.112;2023-06-10T08:18:48;10.52;;;8.48;;
20545;SDS011;10431;50.228;9.112;2023-06-10T08:21:16;14.00;;;8.50;;
20545;SDS011;10431;50.228;9.112;2023-06-10T08:23:42;13.65;;;8.20;;
20545;SDS011;10431;50.228;9.112;2023-06-10T08:26:09;9.25;;;7.85;;
20545;SDS011;10431;50.228;9.112;2023-06-10T08:28:35;9.48;;;8.07;;
20545;SDS011;10431;50.228;9.112;2023-06-10T08:31:02;9.80;;;8.20;;
20545;SDS011;10431;50.228;9.112;2023-06-10T08:33:28;15.38;;;9.05;;
20545;SDS011;10431;50.228;9.112;2023-06-10T08:35:54;11.68;;;8.00;;
20545;SDS011;10431;50.228;9.112;2023-06-10T08:38:20;10.75;;;7.90;;
20545;SDS011;10431;50.228;9.112;2023-06-10T08:40:46;12.68;;;7.82;;
20545;SDS011;10431;50.228;9.112;2023-06-10T08:43:17;9.85;;;7.45;;
20545;SDS011;10431;50.228;9.112;2023-06-10T08:46:08;13.18;;;7.97;;
20545;SDS011;10431;50.228;9.112;2023-06-10T08:48:36;15.93;;;7.82;;
20545;SDS011;10431;50.228;9.112;2023-06-10T08:51:08;10.15;;;8.45;;
20545;SDS011;10431;50.228;9.112;2023-06-10T08:53:36;10.75;;;6.85;;
20545;SDS011;10431;50.228;9.112;2023-06-10T08:56:07;12.18;;;7.93;;
20545;SDS011;10431;50.228;9.112;2023-06-10T08:58:35;10.73;;;7.35;;
20545;SDS011;10431;50.228;9.112;2023-06-10T09:01:10;9.68;;;7.50;;
20545;SDS011;10431;50.228;9.112;2023-06-10T09:03:37;8.30;;;7.40;;
20545;SDS011;10431;50.228;9.112;2023-06-10T09:06:06;9.70;;;7.90;;
20545;SDS011;10431;50.228;9.112;2023-06-10T09:08:33;12.20;;;7.28;;
20545;SDS011;10431;50.228;9.112;2023-06-10T09:11:00;11.77;;;7.28;;
20545;SDS011;10431;50.228;9.112;2023-06-10T09:13:27;9.43;;;7.22;;
20545;SDS011;10431;50.228;9.112;2023-06-10T09:15:53;8.95;;;7.72;;
20545;SDS011;10431;50.228;9.112;2023-06-10T09:18:22;12.20;;;7.45;;
20545;SDS011;10431;50.228;9.112;2023-06-10T09:20:49;11.77;;;7.90;;
20545;SDS011;10431;50.228;9.112;2023-06-10T09:23:15;13.60;;;7.78;;
20545;SDS011;10431;50.228;9.112;2023-06-10T09:25:42;10.18;;;7.93;;
20545;SDS011;10431;50.228;9.112;2023-06-10T09:28:14;9.07;;;7.45;;
20545;SDS011;10431;50.228;9.112;2023-06-10T09:30:41;22.63;;;7.75;;
20545;SDS011;10431;50.228;9.112;2023-06-10T09:33:11;8.15;;;6.82;;
20545;SDS011;10431;50.228;9.112;2023-06-10T09:35:49;8.43;;;7.25;;
20545;SDS011;10431;50.228;9.112;2023-06-10T09:38:19;7.63;;;6.93;;
20545;SDS011;10431;50.228;9.112;2023-06-10T09:40:54;8.15;;;7.10;;
20545;SDS011;10431;50.228;9.112;2023-06-10T09:43:20;7.85;;;7.13;;
20545;SDS011;10431;50.228;9.112;2023-06-10T09:45:47;7.60;;;6.82;;
20545;SDS011;10431;50.228;9.112;2023-06-10T09:48:14;7.40;;;6.70;;
20545;SDS011;10431;50.228;9.112;2023-06-10T09:50:43;9.98;;;7.13;;
20545;SDS011;10431;50.228;9.112;2023-06-10T09:53:10;9.60;;;6.93;;
20545;SDS011;10431;50.228;9.112;2023-06-10T09:55:38;7.60;;;6.65;;
20545;SDS011;10431;50.228;9.112;2023-06-10T09:58:05;8.52;;;6.75;;
20545;SDS011;10431;50.228;9.112;2023-06-10T10:00:32;8.80;;;7.18;;
20545;SDS011;10431;50.228;9.112;2023-06-10T10:02:58;8.95;;;7.30;;
20545;SDS011;10431;50.228;9.112;2023-06-10T10:05:25;9.60;;;6.80;;
20545;SDS011;10431;50.228;9.112;2023-06-10T10:07:52;9.00;;;7.13;;
20545;SDS011;10431;50.228;9.112;2023-06-10T10:10:21;8.00;;;7.20;;
20545;SDS011;10431;50.228;9.112;2023-06-10T10:12:48;7.70;;;6.53;;
20545;SDS011;10431;50.228;9.112;2023-06-10T10:15:19;7.60;;;6.80;;
20545;SDS011;10431;50.228;9.112;2023-06-10T10:17:50;8.38;;;6.85;;
20545;SDS011;10431;50.228;9.112;2023-06-10T10:20:17;8.00;;;6.72;;
20545;SDS011;10431;50.228;9.112;2023-06-10T10:22:47;7.10;;;6.40;;
20545;SDS011;10431;50.228;9.112;2023-06-10T10:25:23;8.30;;;6.72;;
20545;SDS011;10431;50.228;9.112;2023-06-10T10:28:11;8.82;;;7.18;;
20545;SDS011;10431;50.228;9.112;2023-06-10T10:30:42;7.80;;;6.90;;
20545;SDS011;10431;50.228;9.112;2023-06-10T10:35:43;7.38;;;6.63;;
20545;SDS011;10431;50.228;9.112;2023-06-10T10:38:11;10.77;;;7.00;;
20545;SDS011;10431;50.228;9.112;2023-06-10T10:40:37;9.02;;;6.50;;
20545;SDS011;10431;50.228;9.112;2023-06-10T10:43:04;8.00;;;6.78;;
20545;SDS011;10431;50.228;9.112;2023-06-10T10:45:33;7.18;;;6.47;;
20545;SDS011;10431;50.228;9.112;2023-06-10T10:48:01;8.20;;;6.60;;
20545;SDS011;10431;50.228;9.112;2023-06-10T10:50:34;7.30;;;6.60;;
20545;SDS011;10431;50.228;9.112;2023-06-10T10:53:01;10.85;;;6.50;;
20545;SDS011;10431;50.228;9.112;2023-06-10T10:55:28;8.05;;;6.47;;
20545;SDS011;10431;50.228;9.112;2023-06-10T10:57:56;7.70;;;6.70;;
20545;SDS011;10431;50.228;9.112;2023-06-10T11:00:31;8.02;;;6.50;;
20545;SDS011;10431;50.228;9.112;2023-06-10T11:02:59;8.02;;;6.30;;
20545;SDS011;10431;50.228;9.112;2023-06-10T11:05:45;7.15;;;6.10;;
20545;SDS011;10431;50.228;9.112;2023-06-10T11:08:15;6.68;;;6.00;;
20545;SDS011;10431;50.228;9.112;2023-06-10T11:11:25;6.75;;;6.13;;
20545;SDS011;10431;50.228;9.112;2023-06-10T11:16:30;7.05;;;6.32;;
20545;SDS011;10431;50.228;9.112;2023-06-10T11:19:07;7.45;;;6.60;;
20545;SDS011;10431;50.228;9.112;2023-06-10T11:24:25;6.72;;;6.05;;
20545;SDS011;10431;50.228;9.112;2023-06-10T11:26:52;6.97;;;6.28;;
20545;SDS011;10431;50.228;9.112;2023-06-10T11:29:18;7.30;;;6.25;;
20545;SDS011;10431;50.228;9.112;2023-06-10T11:31:49;8.52;;;6.03;;
20545;SDS011;10431;50.228;9.112;2023-06-10T11:34:23;7.13;;;6.43;;
20545;SDS011;10431;50.228;9.112;2023-06-10T11:36:50;7.28;;;6.45;;
20545;SDS011;10431;50.228;9.112;2023-06-10T11:39:17;7.43;;;6.72;;
20545;SDS011;10431;50.228;9.112;2023-06-10T11:41:45;6.88;;;5.95;;
20545;SDS011;10431;50.228;9.112;2023-06-10T11:44:12;7.35;;;6.63;;
20545;SDS011;10431;50.228;9.112;2023-06-10T11:46:39;6.90;;;6.18;;
20545;SDS011;10431;50.228;9.112;2023-06-10T11:49:08;10.40;;;6.93;;
20545;SDS011;10431;50.228;9.112;2023-06-10T11:51:35;6.78;;;6.07;;
20545;SDS011;10431;50.228;9.112;2023-06-10T11:54:03;7.05;;;6.35;;
20545;SDS011;10431;50.228;9.112;2023-06-10T11:56:31;7.10;;;6.03;;
20545;SDS011;10431;50.228;9.112;2023-06-10T11:59:06;7.03;;;6.15;;
20545;SDS011;10431;50.228;9.112;2023-06-10T12:01:34;7.75;;;6.28;;
20545;SDS011;10431;50.228;9.112;2023-06-10T12:04:08;6.95;;;6.25;;
20545;SDS011;10431;50.228;9.112;2023-06-10T12:06:43;6.90;;;6.15;;
20545;SDS011;10431;50.228;9.112;2023-06-10T12:09:28;6.63;;;5.93;;
20545;SDS011;10431;50.228;9.112;2023-06-10T12:12:04;7.38;;;6.28;;
20545;SDS011;10431;50.228;9.112;2023-06-10T12:17:20;7.43;;;5.75;;
20545;SDS011;10431;50.228;9.112;2023-06-10T12:20:05;7.90;;;6.30;;
20545;SDS011;10431;50.228;9.112;2023-06-10T12:22:37;6.70;;;6.05;;
20545;SDS011;10431;50.228;9.112;2023-06-10T12:25:04;6.32;;;5.70;;
20545;SDS011;10431;50.228;9.112;2023-06-10T12:27:32;6.22;;;5.63;;
20545;SDS011;10431;50.228;9.112;2023-06-10T12:30:00;6.47;;;5.80;;
20545;SDS011;10431;50.228;9.112;2023-06-10T12:35:07;5.90;;;5.30;;
20545;SDS011;10431;50.228;9.112;2023-06-10T12:37:35;6.38;;;5.78;;
20545;SDS011;10431;50.228;9.112;2023-06-10T12:40:02;7.75;;;6.05;;
20545;SDS011;10431;50.228;9.112;2023-06-10T12:42:32;6.57;;;5.78;;
20545;SDS011;10431;50.228;9.112;2023-06-10T12:45:03;7.32;;;6.05;;
20545;SDS011;10431;50.228;9.112;2023-06-10T12:47:30;6.10;;;5.50;;
20545;SDS011;10431;50.228;9.112;2023-06-10T12:49:58;8.48;;;5.88;;
20545;SDS011;10431;50.228;9.112;2023-06-10T12:52:25;6.63;;;5.78;;
20545;SDS011;10431;50.228;9.112;2023-06-10T12:54:52;6.20;;;5.60;;
20545;SDS011;10431;50.228;9.112;2023-06-10T12:57:24;8.73;;;6.60;;
20545;SDS011;10431;50.228;9.112;2023-06-10T12:59:51;7.55;;;6.32;;
20545;SDS011;10431;50.228;9.112;2023-06-10T13:02:22;6.40;;;5.78;;
20545;SDS011;10431;50.228;9.112;2023-06-10T13:04:50;6.20;;;5.60;;
20545;SDS011;10431;50.228;9.112;2023-06-10T13:07:16;7.38;;;6.13;;
20545;SDS011;10431;50.228;9.112;2023-06-10T13:09:43;5.95;;;5.43;;
20545;SDS011;10431;50.228;9.112;2023-06-10T13:12:09;6.20;;;5.60;;
20545;SDS011;10431;50.228;9.112;2023-06-10T13:14:36;6.05;;;5.40;;
20545;SDS011;10431;50.228;9.112;2023-06-10T13:17:05;6.53;;;5.72;;
20545;SDS011;10431;50.228;9.112;2023-06-10T13:19:35;6.55;;;5.57;;
20545;SDS011;10431;50.228;9.112;2023-06-10T13:22:01;6.28;;;5.68;;
20545;SDS011;10431;50.228;9.112;2023-06-10T13:24:27;6.30;;;5.38;;
20545;SDS011;10431;50.228;9.112;2023-06-10T13:26:53;5.88;;;5.28;;
20545;SDS011;10431;50.228;9.112;2023-06-10T13:29:21;5.85;;;5.25;;
20545;SDS011;10431;50.228;9.112;2023-06-10T13:31:48;5.80;;;5.30;;
20545;SDS011;10431;50.228;9.112;2023-06-10T13:34:14;6.13;;;5.53;;
20545;SDS011;10431;50.228;9.112;2023-06-10T13:36:40;5.90;;;5.40;;
20545;SDS011;10431;50.228;9.112;2023-06-10T13:39:06;6.07;;;5.47;;
20545;SDS011;10431;50.228;9.112;2023-06-10T13:41:32;6.07;;;5.47;;
20545;SDS011;10431;50.228;9.112;2023-06-10T13:43:59;5.80;;;5.20;;
20545;SDS011;10431;50.228;9.112;2023-06-10T13:46:25;5.93;;;5.32;;
20545;SDS011;10431;50.228;9.112;2023-06-10T13:48:52;6.00;;;5.32;;
20545;SDS011;10431;50.228;9.112;2023-06-10T13:51:18;6.22;;;5.63;;
20545;SDS011;10431;50.228;9.112;2023-06-10T13:53:44;5.45;;;4.95;;
20545;SDS011;10431;50.228;9.112;2023-06-10T13:56:11;5.97;;;5.28;;
20545;SDS011;10431;50.228;9.112;2023-06-10T13:58:38;6.03;;;5.43;;
20545;SDS011;10431;50.228;9.112;2023-06-10T14:01:06;6.20;;;5.60;;
20545;SDS011;10431;50.228;9.112;2023-06-10T14:03:33;6.18;;;5.57;;
20545;SDS011;10431;50.228;9.112;2023-06-10T14:06:00;5.43;;;4.88;;
20545;SDS011;10431;50.228;9.112;2023-06-10T14:08:26;5.93;;;5.32;;
20545;SDS011;10431;50.228;9.112;2023-06-10T14:10:52;5.55;;;5.05;;
20545;SDS011;10431;50.228;9.112;2023-06-10T14:13:18;5.50;;;4.90;;
20545;SDS011;10431;50.228;9.112;2023-06-10T14:15:44;5.55;;;5.05;;
20545;SDS011;10431;50.228;9.112;2023-06-10T14:18:11;6.07;;;5.47;;
20545;SDS011;10431;50.228;9.112;2023-06-10T14:20:37;5.82;;;5.22;;
20545;SDS011;10431;50.228;9.112;2023-06-10T14:23:03;5.57;;;5.03;;
20545;SDS011;10431;50.228;9.112;2023-06-10T14:25:30;5.60;;;5.10;;
20545;SDS011;10431;50.228;9.112;2023-06-10T14:27:56;5.60;;;5.00;;
20545;SDS011;10431;50.228;9.112;2023-06-10T14:30:23;5.43;;;4.93;;
20545;SDS011;10431;50.228;9.112;2023-06-10T14:32:49;5.78;;;5.18;;
20545;SDS011;10431;50.228;9.112;2023-06-10T14:35:15;5.35;;;4.95;;
20545;SDS011;10431;50.228;9.112;2023-06-10T14:37:41;5.75;;;5.25;;
20545;SDS011;10431;50.228;9.112;2023-06-10T14:40:08;5.30;;;4.80;;
20545;SDS011;10431;50.228;9.112;2023-06-10T14:42:34;5.40;;;4.90;;
20545;SDS011;10431;50.228;9.112;2023-06-10T14:45:01;5.40;;;4.80;;
20545;SDS011;10431;50.228;9.112;2023-06-10T14:47:27;5.30;;;4.80;;
20545;SDS011;10431;50.228;9.112;2023-06-10T14:49:53;5.00;;;4.50;;
20545;SDS011;10431;50.228;9.112;2023-06-10T14:52:19;5.18;;;4.78;;
20545;SDS011;10431;50.228;9.112;2023-06-10T14:54:45;5.40;;;4.90;;
20545;SDS011;10431;50.228;9.112;2023-06-10T14:57:12;5.95;;;4.85;;
20545;SDS011;10431;50.228;9.112;2023-06-10T14:59:38;5.85;;;5.00;;
20545;SDS011;10431;50.228;9.112;2023-06-10T15:02:04;5.57;;;5.07;;
20545;SDS011;10431;50.228;9.112;2023-06-10T15:04:31;5.18;;;4.70;;
20545;SDS011;10431;50.228;9.112;2023-06-10T15:06:57;4.80;;;4.40;;